createdAt,value
2022-12-23T00:00:54.892Z,25.77
2022-12-23T00:04:16.234Z,24.00
2022-12-23T00:07:37.971Z,28.87
2022-12-23T00:11:01.235Z,28.23
2022-12-23T00:14:36.444Z,30.27
2022-12-23T00:17:57.873Z,26.03
2022-12-23T00:21:19.348Z,25.90
2022-12-23T00:24:40.613Z,26.00
2022-12-23T00:28:03.733Z,23.23
2022-12-23T00:31:26.442Z,24.13
2022-12-23T00:34:47.740Z,24.80
2022-12-23T00:38:09.165Z,26.33
2022-12-23T00:41:48.786Z,27.50
2022-12-23T00:45:16.472Z,28.67
2022-12-23T00:48:55.447Z,26.63
2022-12-23T00:52:16.922Z,24.07
2022-12-23T00:55:38.773Z,23.30
2022-12-23T00:59:00.929Z,22.37
2022-12-23T01:02:41.281Z,23.57
2022-12-23T01:06:03.860Z,25.67
2022-12-23T01:09:26.064Z,26.63
2022-12-23T01:12:47.428Z,28.77
2022-12-23T01:16:16.838Z,24.40
2022-12-23T01:19:40.783Z,26.13
2022-12-23T01:23:02.435Z,26.33
2022-12-23T01:26:24.224Z,27.60
2022-12-23T01:29:46.995Z,24.47
2022-12-23T01:33:09.054Z,25.13
2022-12-23T01:36:32.450Z,23.83
2022-12-23T01:39:53.821Z,23.63
2022-12-23T01:43:17.373Z,25.13
2022-12-23T01:46:38.851Z,25.83
2022-12-23T01:50:06.017Z,22.90
2022-12-23T01:53:32.587Z,24.87
2022-12-23T01:56:54.178Z,23.30
2022-12-23T02:00:34.147Z,23.37
2022-12-23T02:03:58.764Z,23.97
2022-12-23T02:07:38.110Z,22.20
2022-12-23T02:11:28.281Z,22.80
2022-12-23T02:15:31.262Z,23.37
2022-12-23T02:19:12.563Z,22.30
2022-12-23T02:22:55.759Z,22.30
2022-12-23T02:26:49.018Z,21.73
2022-12-23T02:30:37.980Z,21.23
2022-12-23T02:34:08.047Z,23.53
2022-12-23T02:37:37.053Z,20.07
2022-12-23T02:41:08.369Z,23.57
2022-12-23T02:44:37.361Z,23.20
2022-12-23T02:48:05.911Z,18.93
2022-12-23T02:51:32.806Z,20.90
2022-12-23T02:55:00.223Z,17.57
2022-12-23T02:58:28.254Z,19.47
2022-12-23T03:01:52.014Z,22.43
2022-12-23T03:05:30.681Z,20.87
2022-12-23T03:08:55.614Z,18.70
2022-12-23T03:12:28.489Z,20.13
2022-12-23T03:15:56.944Z,19.43
2022-12-23T03:19:27.180Z,15.80
2022-12-23T03:23:00.171Z,20.67
2022-12-23T03:26:26.286Z,18.53
2022-12-23T03:29:55.281Z,17.10
2022-12-23T03:33:20.528Z,19.03
2022-12-23T03:36:47.942Z,17.23
2022-12-23T03:40:16.148Z,20.50
2022-12-23T03:43:48.323Z,19.00
2022-12-23T03:47:15.962Z,16.33
2022-12-23T03:50:41.517Z,17.00
2022-12-23T03:54:11.016Z,19.93
2022-12-23T03:57:39.771Z,15.93
2022-12-23T04:01:11.015Z,17.63
2022-12-23T04:04:46.444Z,18.00
2022-12-23T04:08:14.298Z,18.07
2022-12-23T04:11:37.530Z,19.37
2022-12-23T04:15:00.269Z,16.60
2022-12-23T04:18:21.846Z,18.87
2022-12-23T04:21:43.341Z,18.53
2022-12-23T04:25:05.700Z,17.70
2022-12-23T04:28:27.366Z,16.83
2022-12-23T04:31:49.945Z,17.37
2022-12-23T04:35:13.257Z,20.30
2022-12-23T04:38:34.990Z,17.17
2022-12-23T04:41:56.707Z,19.70
2022-12-23T04:45:18.502Z,18.77
2022-12-23T04:48:41.646Z,17.57
2022-12-23T04:52:03.425Z,20.60
2022-12-23T04:55:25.159Z,19.57
2022-12-23T04:58:48.023Z,18.70
2022-12-23T05:02:09.680Z,19.87
2022-12-23T05:05:32.837Z,18.80
2022-12-23T05:08:54.733Z,19.83
2022-12-23T05:12:16.136Z,16.73
2022-12-23T05:15:37.876Z,18.20
2022-12-23T05:18:59.536Z,19.10
2022-12-23T05:22:22.447Z,19.60
2022-12-23T05:25:43.802Z,17.13
2022-12-23T05:29:06.167Z,20.23
2022-12-23T05:32:29.908Z,19.13
2022-12-23T05:35:51.848Z,17.33
2022-12-23T05:39:14.956Z,16.73
2022-12-23T05:42:36.407Z,17.13
2022-12-23T05:45:58.328Z,17.10
2022-12-23T05:49:20.042Z,17.10
2022-12-23T05:52:41.824Z,16.77
2022-12-23T05:56:07.037Z,17.87
2022-12-23T05:59:31.294Z,17.33
2022-12-23T06:02:54.250Z,15.63
2022-12-23T06:06:16.176Z,16.00
2022-12-23T06:09:38.011Z,18.00
2022-12-23T06:13:00.689Z,18.63
2022-12-23T06:16:22.721Z,21.07
2022-12-23T06:19:44.369Z,19.47
2022-12-23T06:23:06.115Z,20.67
2022-12-23T06:26:27.981Z,17.97
2022-12-23T06:29:51.098Z,17.30
2022-12-23T06:33:12.189Z,17.07
2022-12-23T06:36:33.875Z,19.17
2022-12-23T06:39:55.292Z,16.33
2022-12-23T06:43:17.355Z,18.50
2022-12-23T06:46:40.368Z,17.57
2022-12-23T06:50:01.917Z,18.00
2022-12-23T06:53:23.772Z,16.33
2022-12-23T06:56:45.177Z,18.23
2022-12-23T07:00:08.277Z,21.00
2022-12-23T07:03:32.833Z,19.37
2022-12-23T07:06:54.617Z,17.73
2022-12-23T07:10:16.566Z,19.97
2022-12-23T07:13:38.247Z,18.53
2022-12-23T07:17:00.125Z,18.93
2022-12-23T07:20:23.119Z,17.30
2022-12-23T07:23:44.708Z,19.00
2022-12-23T07:27:06.588Z,29.80
2022-12-23T07:30:29.152Z,18.27
2022-12-23T07:33:50.595Z,20.07
2022-12-23T07:37:13.901Z,17.80
2022-12-23T07:40:36.055Z,20.67
2022-12-23T07:43:57.606Z,19.00
2022-12-23T07:47:19.323Z,21.03
2022-12-23T07:50:41.123Z,18.83
2022-12-23T07:54:03.845Z,21.87
2022-12-23T07:57:25.413Z,20.70
2022-12-23T08:00:46.978Z,19.87
2022-12-23T08:04:09.143Z,19.33
2022-12-23T08:07:30.682Z,19.80
2022-12-23T08:10:58.226Z,20.07
2022-12-23T08:14:20.093Z,21.97
2022-12-23T08:17:41.797Z,22.83
2022-12-23T08:21:14.762Z,22.43
2022-12-23T08:24:36.077Z,20.57
2022-12-23T08:27:59.235Z,24.47
2022-12-23T08:31:22.913Z,27.57
2022-12-23T08:34:44.373Z,28.67
2022-12-23T08:38:07.492Z,20.73
2022-12-23T08:41:31.203Z,22.10
2022-12-23T08:44:54.155Z,20.07
2022-12-23T08:48:16.363Z,19.80
2022-12-23T08:51:38.793Z,21.30
2022-12-23T08:55:00.186Z,17.00
2022-12-23T08:58:22.139Z,21.33
2022-12-23T09:01:45.478Z,17.90
2022-12-23T09:05:07.128Z,19.40
2022-12-23T09:08:28.631Z,17.83
2022-12-23T09:11:50.573Z,20.70
2022-12-23T09:15:12.453Z,21.00
2022-12-23T09:18:35.712Z,19.60
2022-12-23T09:21:57.074Z,21.40
2022-12-23T09:25:18.655Z,26.23
2022-12-23T09:28:41.181Z,26.93
2022-12-23T09:32:02.558Z,29.60
2022-12-23T09:35:25.682Z,32.53
2022-12-23T09:38:47.713Z,28.13
2022-12-23T09:42:28.030Z,22.63
2022-12-23T09:46:00.301Z,23.10
2022-12-23T09:49:24.381Z,23.37
2022-12-23T09:52:55.520Z,20.90
2022-12-23T09:56:24.504Z,19.53
2022-12-23T10:00:02.939Z,22.57
2022-12-23T10:03:30.097Z,20.43
2022-12-23T10:07:02.824Z,17.63
2022-12-23T10:10:33.883Z,18.03
2022-12-23T10:13:58.795Z,19.97
2022-12-23T10:17:28.112Z,20.23
2022-12-23T10:20:54.963Z,19.47
2022-12-23T10:24:22.809Z,20.97
2022-12-23T10:27:46.317Z,20.13
2022-12-23T10:35:09.053Z,21.63
2022-12-23T10:38:52.228Z,20.30
2022-12-23T10:42:25.568Z,18.37
2022-12-23T10:45:59.159Z,17.80
2022-12-23T10:49:31.654Z,17.50
2022-12-23T10:52:55.215Z,16.93
2022-12-23T10:56:18.226Z,17.87
2022-12-23T10:59:40.830Z,25.23
2022-12-23T11:03:16.651Z,19.70
2022-12-23T11:06:42.047Z,20.53
2022-12-23T11:10:06.361Z,19.93
2022-12-23T11:13:36.619Z,18.33
2022-12-23T11:16:58.524Z,17.23
2022-12-23T11:20:21.723Z,13.73
2022-12-23T11:23:43.189Z,15.27
2022-12-23T11:27:07.360Z,15.23
2022-12-23T11:30:31.155Z,13.03
2022-12-23T11:33:59.388Z,17.20
2022-12-23T11:37:35.714Z,15.63
2022-12-23T11:40:58.069Z,13.27
2022-12-23T11:44:23.497Z,14.63
2022-12-23T11:47:45.236Z,13.90
2022-12-23T11:51:07.133Z,13.87
2022-12-23T11:54:30.718Z,14.27
2022-12-23T11:57:53.595Z,13.57
2022-12-23T12:01:18.894Z,16.40
2022-12-23T12:04:41.854Z,12.43
2022-12-23T12:08:06.841Z,13.07
2022-12-23T12:11:33.999Z,12.90
2022-12-23T12:14:57.666Z,13.70
2022-12-23T12:18:22.052Z,13.60
2022-12-23T12:21:45.003Z,11.43
2022-12-23T12:25:18.717Z,13.53
2022-12-23T12:28:44.162Z,17.70
2022-12-23T12:32:10.910Z,12.40
2022-12-23T12:35:37.901Z,13.03
2022-12-23T12:39:00.912Z,11.57
2022-12-23T12:42:27.816Z,10.37
2022-12-23T12:45:54.881Z,12.07
2022-12-23T12:49:23.538Z,12.93
2022-12-23T12:52:45.423Z,12.63
2022-12-23T12:56:13.235Z,11.13
2022-12-23T12:59:37.758Z,11.33
2022-12-23T13:03:24.192Z,12.17
2022-12-23T13:06:53.143Z,11.57
2022-12-23T13:10:24.399Z,10.43
2022-12-23T13:13:53.495Z,11.87
2022-12-23T13:17:22.803Z,11.97
2022-12-23T13:20:50.900Z,10.93
2022-12-23T13:24:22.136Z,13.63
2022-12-23T13:27:50.484Z,13.07
2022-12-23T13:31:18.411Z,11.33
2022-12-23T13:34:49.925Z,12.27
2022-12-23T13:38:29.199Z,12.00
2022-12-23T13:41:57.380Z,12.80
2022-12-23T13:45:28.689Z,13.37
2022-12-23T13:48:57.636Z,13.87
2022-12-23T13:52:29.869Z,12.20
2022-12-23T13:56:10.197Z,16.53
2022-12-23T13:59:41.008Z,13.53
2022-12-23T14:03:19.219Z,13.37
2022-12-23T14:06:45.866Z,14.43
2022-12-23T14:10:13.203Z,13.33
2022-12-23T14:13:44.079Z,13.37
2022-12-23T14:17:16.496Z,14.73
2022-12-23T14:20:49.407Z,15.33
2022-12-23T14:24:35.657Z,14.67
2022-12-23T14:28:05.606Z,13.63
2022-12-23T14:31:37.050Z,16.57
2022-12-23T14:35:19.271Z,13.23
2022-12-23T14:38:41.136Z,14.40
2022-12-23T14:42:06.782Z,13.30
2022-12-23T14:45:36.052Z,15.40
2022-12-23T14:49:39.424Z,14.50
2022-12-23T14:53:02.320Z,14.57
2022-12-23T14:56:34.603Z,15.37
2022-12-23T15:00:02.606Z,13.90
2022-12-23T15:03:24.312Z,14.20
2022-12-23T15:06:50.108Z,15.07
2022-12-23T15:10:19.457Z,15.20
2022-12-23T15:13:41.222Z,14.40
2022-12-23T15:17:16.323Z,13.07
2022-12-23T15:20:38.468Z,15.20
2022-12-23T15:24:01.395Z,12.80
2022-12-23T15:27:28.355Z,16.90
2022-12-23T15:30:53.528Z,14.10
2022-12-23T15:34:23.168Z,13.10
2022-12-23T15:37:45.245Z,12.80
2022-12-23T15:41:18.550Z,14.37
2022-12-23T15:44:40.771Z,14.37
2022-12-23T15:48:04.367Z,13.13
2022-12-23T15:51:58.329Z,15.53
2022-12-23T15:55:16.560Z,13.67
2022-12-23T15:58:43.051Z,11.87
2022-12-23T16:02:40.533Z,13.93
2022-12-23T16:05:52.974Z,15.87
2022-12-23T16:09:30.894Z,15.63
2022-12-23T16:12:53.667Z,18.27
2022-12-23T16:16:32.204Z,14.00
2022-12-23T16:19:56.060Z,16.83
2022-12-23T16:23:18.913Z,13.10
2022-12-23T16:26:42.308Z,16.13
2022-12-23T16:30:12.258Z,14.37
2022-12-23T16:33:39.745Z,14.40
2022-12-23T16:37:01.440Z,15.20
2022-12-23T16:40:24.440Z,14.47
2022-12-23T16:43:52.142Z,14.87
2022-12-23T16:47:18.603Z,17.10
2022-12-23T16:50:41.644Z,14.57
2022-12-23T16:54:03.472Z,15.73
2022-12-23T16:57:25.047Z,20.30
2022-12-23T17:00:47.490Z,17.47
2022-12-23T17:04:09.954Z,17.00
2022-12-23T17:07:32.700Z,15.03
2022-12-23T17:10:54.099Z,13.50
2022-12-23T17:14:18.101Z,13.53
2022-12-23T17:17:40.382Z,15.47
2022-12-23T17:21:02.117Z,13.53
2022-12-23T17:24:26.646Z,12.57
2022-12-23T17:27:50.027Z,12.97
2022-12-23T17:31:15.393Z,18.03
2022-12-23T17:34:38.868Z,21.40
2022-12-23T17:38:02.195Z,18.50
2022-12-23T17:41:28.945Z,21.47
2022-12-23T17:44:50.540Z,18.83
2022-12-23T17:48:17.969Z,17.63
2022-12-23T17:51:43.547Z,16.13
2022-12-23T17:55:05.387Z,15.00
2022-12-23T17:58:28.155Z,14.67
2022-12-23T18:01:50.393Z,18.97
2022-12-23T18:05:22.836Z,17.43
2022-12-23T18:08:44.462Z,19.87
2022-12-23T18:12:07.171Z,16.80
2022-12-23T18:15:35.241Z,16.30
2022-12-23T18:18:57.397Z,17.27
2022-12-23T18:22:21.164Z,25.67
2022-12-23T18:25:43.032Z,29.57
2022-12-23T18:29:04.472Z,36.47
2022-12-23T18:32:29.206Z,31.00
2022-12-23T18:35:51.315Z,33.67
2022-12-23T18:39:12.771Z,22.50
2022-12-23T18:42:34.460Z,21.20
2022-12-23T18:45:56.239Z,26.03
2022-12-23T18:49:19.562Z,28.37
2022-12-23T18:52:41.235Z,19.53
2022-12-23T18:56:02.875Z,22.03
2022-12-23T18:59:30.020Z,23.33
2022-12-23T19:02:53.940Z,24.70
2022-12-23T19:06:17.110Z,21.23
2022-12-23T19:09:38.706Z,18.77
2022-12-23T19:13:00.603Z,20.10
2022-12-23T19:16:22.653Z,23.97
2022-12-23T19:19:44.396Z,27.97
2022-12-23T19:23:07.065Z,24.40
2022-12-23T19:26:28.993Z,22.83
2022-12-23T19:29:50.599Z,21.03
2022-12-23T19:33:13.266Z,17.67
2022-12-23T19:36:35.313Z,15.83
2022-12-23T19:39:58.259Z,16.87
2022-12-23T19:43:20.019Z,20.43
2022-12-23T19:46:42.162Z,24.03
2022-12-23T19:50:03.508Z,25.17
2022-12-23T19:53:25.334Z,29.90
2022-12-23T19:56:51.878Z,30.53
2022-12-23T20:00:16.009Z,31.03
2022-12-23T20:03:38.622Z,32.53
2022-12-23T20:07:00.421Z,27.37
2022-12-23T20:10:21.677Z,26.07
2022-12-23T20:13:45.693Z,26.50
2022-12-23T20:17:07.418Z,22.63
2022-12-23T20:20:29.536Z,33.27
2022-12-23T20:23:51.440Z,24.43
2022-12-23T20:27:15.782Z,17.33
2022-12-23T20:30:39.097Z,13.47
2022-12-23T20:34:01.514Z,12.07
2022-12-23T20:37:23.285Z,13.30
2022-12-23T20:40:45.146Z,13.13
2022-12-23T20:44:33.956Z,12.57
2022-12-23T20:47:49.601Z,14.77
2022-12-23T20:51:13.867Z,17.27
2022-12-23T20:54:35.225Z,18.57
2022-12-23T20:57:57.135Z,16.93
2022-12-23T21:01:18.916Z,20.73
2022-12-23T21:04:42.013Z,24.93
2022-12-23T21:08:03.836Z,20.17
2022-12-23T21:11:25.437Z,21.97
2022-12-23T21:14:47.060Z,17.17
2022-12-23T21:18:08.737Z,16.80
2022-12-23T21:21:32.081Z,17.10
2022-12-23T21:24:53.336Z,17.70
2022-12-23T21:28:15.142Z,18.50
2022-12-23T21:31:38.851Z,18.30
2022-12-23T21:35:01.655Z,20.07
2022-12-23T21:38:24.696Z,18.33
2022-12-23T21:41:46.015Z,16.00
2022-12-23T21:45:08.834Z,17.80
2022-12-23T21:48:32.518Z,15.47
2022-12-23T21:51:54.381Z,17.33
2022-12-23T21:55:18.150Z,15.97
2022-12-23T21:58:40.257Z,16.53
2022-12-23T22:02:01.733Z,16.03
2022-12-23T22:05:23.404Z,18.17
2022-12-23T22:08:45.187Z,16.13
2022-12-23T22:12:08.619Z,14.50
2022-12-23T22:15:30.298Z,17.40
2022-12-23T22:18:53.099Z,16.67
2022-12-23T22:22:14.693Z,17.37
2022-12-23T22:25:36.378Z,14.47
2022-12-23T22:29:01.181Z,15.57
2022-12-23T22:32:22.839Z,16.57
2022-12-23T22:35:44.284Z,16.13
2022-12-23T22:39:07.775Z,20.93
2022-12-23T22:42:29.573Z,18.13
2022-12-23T22:45:58.589Z,18.30
2022-12-23T22:49:20.431Z,16.60
2022-12-23T22:52:42.356Z,18.87
2022-12-23T22:56:05.251Z,16.33
2022-12-23T22:59:27.152Z,14.57
2022-12-23T23:02:50.104Z,15.37
2022-12-23T23:06:12.253Z,14.27
2022-12-23T23:09:33.551Z,17.50
2022-12-23T23:12:55.230Z,14.83
2022-12-23T23:16:17.077Z,15.23
2022-12-23T23:19:39.987Z,16.57
2022-12-23T23:23:01.668Z,15.77
2022-12-23T23:26:26.804Z,15.03
2022-12-23T23:29:48.328Z,14.53
2022-12-23T23:33:11.499Z,19.13
2022-12-23T23:36:34.396Z,19.63
2022-12-23T23:39:55.595Z,17.47
2022-12-23T23:43:17.294Z,17.50
2022-12-23T23:46:39.309Z,18.17
2022-12-23T23:50:00.834Z,17.17
2022-12-23T23:53:23.485Z,17.77
2022-12-23T23:56:45.163Z,15.90
